Date,TemperatureHighF,TemperatureAvgF,TemperatureLowF,DewpointHighF,DewpointAvgF,DewpointLowF,HumidityHigh,HumidityAvg,HumidityLow,PressureMaxIn,PressureMinIn,WindSpeedMaxMPH,WindSpeedAvgMPH,GustSpeedMaxMPH,PrecipitationSumIn
2013-1-1,58,54,52,54,51,49,94,88,81,30.20,29.98,9,2,13,0.00
2013-1-2,58,53,45,57,51,42,97,92,87,30.22,29.92,12,6,20,0.04
2013-1-3,45,43,39,43,41,38,96,93,87,30.30,30.14,9,4,15,0.09
2013-1-4,51,43,35,39,35,31,95,76,48,30.38,30.25,10,6,14,0.00
2013-1-5,50,42,33,37,32,27,84,69,46,30.44,30.32,11,4,16,0.00
2013-1-6,52,50,44,49,43,36,91,79,68,30.33,30.10,10,2,12,0.01
2013-1-7,54,47,40,46,39,33,95,75,46,30.45,30.18,14,7,21,0.00
2013-1-8,64,52,40,55,46,35,93,81,67,30.44,30.36,12,7,20,0.00
2013-1-9,70,60,52,62,56,50,95,86,71,30.43,30.36,11,4,15,0.00
2013-1-10,67,60,55,57,51,37,97,75,44,30.51,30.41,18,8,23,0.00
2013-1-11,69,60,54,66,58,48,99,93,78,30.41,30.21,10,4,17,0.02
2013-1-12,68,61,55,64,59,55,100,96,87,30.23,30.14,10,5,12,0.01
2013-1-13,66,61,57,63,60,56,98,96,92,30.22,30.13,13,4,14,0.00
2013-1-14,65,62,60,64,61,60,99,97,92,30.23,30.15,12,5,16,0.01
2013-1-15,65,62,60,63,61,59,100,98,93,30.21,30.08,8,2,14,0.01
2013-1-16,65,62,59,64,61,59,100,97,90,30.10,30.00,13,7,20,0.01
2013-1-17,70,61,44,66,59,42,99,93,77,30.02,29.76,32,7,34,0.61
2013-1-18,51,44,38,42,34,27,95,71,39,30.54,30.03,18,9,26,0.00
2013-1-19,57,47,35,50,39,29,93,75,55,30.53,30.24,11,4,14,0.00
2013-1-20,62,54,47,51,46,32,96,76,32,30.24,30.05,14,4,21,0.00
2013-1-21,58,53,44,52,42,34,85,67,44,30.11,29.95,12,5,15,0.00
2013-1-22,54,44,39,35,24,17,68,45,32,30.29,30.01,11,4,21,0.00
2013-1-23,50,38,28,41,18,6,72,45,26,30.42,30.18,15,7,19,0.00
2013-1-24,52,44,29,43,29,10,77,58,38,30.55,30.05,22,12,33,0.00
2013-1-25,40,32,24,32,21,9,85,64,44,30.54,30.17,14,7,21,0.00
2013-1-26,50,40,33,38,32,28,83,73,57,30.40,30.15,9,4,15,0.00
2013-1-27,46,37,30,34,30,27,92,77,54,30.58,30.40,14,8,19,0.00
2013-1-28,59,46,34,54,42,29,98,86,70,30.53,30.31,12,5,15,0.00
2013-1-29,62,56,49,61,55,49,99,97,92,30.31,30.17,12,3,18,0.01
2013-1-30,64,61,58,62,60,57,99,95,91,30.17,29.64,29,12,33,0.00
2013-1-31,64,52,47,63,36,21,95,58,28,30.15,29.62,30,17,48,0.14